Time;durP1;ratioP1;P1;durP2;ratioP2;P2;SDS_P1;SDS_P2;PMS_P1;PMS_P2;Temp;Humidity;BMP_temperature;BMP_pressure;BME280_temperature;BME280_humidity;BME280_pressure;Samples;Min_cycle;Max_cycle;Signal;HPM_P1;HPM_P2
2021/12/16 00:01:47;;;;;;;31.30;24.20;;;;;;;;;;4914910;29;20511;-94
2021/12/16 00:10:13;;;;;;;33.90;25.02;;;;;;;;;;4932822;29;20492;-94
2021/12/16 00:29:53;;;;;;;33.75;24.63;;;;;;;;;;4919764;29;20437;-94
2021/12/16 00:32:32;;;;;;;27.67;21.73;;;;;;;;;;4914003;29;20467;-94
2021/12/16 00:35:00;;;;;;;31.42;22.27;;;;;;;;;;4932719;29;21027;-94
2021/12/16 00:37:28;;;;;;;27.80;19.98;;;;;;;;;;4932627;29;20552;-95
2021/12/16 00:39:56;;;;;;;27.87;21.27;;;;;;;;;;4932715;29;20499;-94
2021/12/16 00:42:34;;;;;;;26.70;21.03;;;;;;;;;;4943383;29;20428;-94
2021/12/16 00:45:21;;;;;;;25.25;20.90;;;;;;;;;;4934946;29;20417;-93
2021/12/16 00:47:54;;;;;;;27.33;20.83;;;;;;;;;;4938324;29;20498;-93
2021/12/16 00:55:55;;;;;;;26.95;20.67;;;;;;;;;;4938829;29;20408;-94
2021/12/16 00:58:26;;;;;;;27.27;21.00;;;;;;;;;;4934281;29;20422;-95
2021/12/16 01:01:04;;;;;;;27.52;20.90;;;;;;;;;;4933567;29;20430;-94
2021/12/16 01:03:38;;;;;;;29.70;21.67;;;;;;;;;;4924646;29;20422;-94
2021/12/16 01:06:26;;;;;;;27.75;21.33;;;;;;;;;;4933223;29;20430;-94
2021/12/16 01:34:02;;;;;;;25.77;20.10;;;;;;;;;;4913129;29;20407;-94
2021/12/16 01:36:57;;;;;;;24.02;19.10;;;;;;;;;;4916540;29;20479;-95
2021/12/16 01:45:33;;;;;;;26.15;19.42;;;;;;;;;;4920530;29;20410;-95
2021/12/16 01:46:10;;;;;;;26.20;19.93;;;;;;;;;;4922753;29;20486;-94
2021/12/16 01:51:25;;;;;;;24.20;19.55;;;;;;;;;;4932468;29;20409;-96
2021/12/16 01:54:33;;;;;;;26.52;20.45;;;;;;;;;;4932907;29;20513;-95
2021/12/16 01:57:10;;;;;;;25.63;19.65;;;;;;;;;;4917669;29;20426;-93
2021/12/16 01:59:41;;;;;;;27.40;19.90;;;;;;;;;;4931796;29;20423;-94
2021/12/16 02:02:18;;;;;;;24.30;19.05;;;;;;;;;;4942880;28;20457;-92
2021/12/16 02:05:08;;;;;;;26.02;20.13;;;;;;;;;;4954070;28;20414;-93
2021/12/16 02:07:54;;;;;;;27.05;19.77;;;;;;;;;;4935041;28;20429;-94
2021/12/16 02:10:35;;;;;;;24.48;19.65;;;;;;;;;;4926921;29;20590;-92
2021/12/16 02:13:30;;;;;;;24.25;18.33;;;;;;;;;;4927877;29;20433;-95
2021/12/16 02:30:08;;;;;;;23.73;18.27;;;;;;;;;;4935504;29;20464;-95
2021/12/16 02:32:46;;;;;;;25.63;18.67;;;;;;;;;;4935812;29;20775;-94
2021/12/16 02:35:28;;;;;;;27.13;19.95;;;;;;;;;;4935574;29;20505;-93
2021/12/16 02:37:59;;;;;;;28.70;21.58;;;;;;;;;;4935352;29;20420;-95
2021/12/16 02:40:37;;;;;;;26.45;19.77;;;;;;;;;;4927790;29;20426;-94
2021/12/16 02:43:21;;;;;;;26.02;19.50;;;;;;;;;;4928415;29;20458;-94
2021/12/16 02:48:35;;;;;;;25.33;19.73;;;;;;;;;;4932024;29;20538;-94
2021/12/16 02:51:08;;;;;;;24.83;19.20;;;;;;;;;;4919927;29;20422;-94
2021/12/16 02:53:42;;;;;;;29.35;20.45;;;;;;;;;;4931187;29;20818;-94
2021/12/16 02:56:09;;;;;;;25.52;19.30;;;;;;;;;;4923494;29;20418;-95
2021/12/16 02:58:41;;;;;;;25.17;19.73;;;;;;;;;;4926430;29;20428;-94
2021/12/16 03:01:14;;;;;;;26.80;19.65;;;;;;;;;;4915505;29;20419;-94
2021/12/16 03:06:46;;;;;;;25.88;19.33;;;;;;;;;;4915513;29;20462;-94
2021/12/16 03:09:17;;;;;;;25.98;19.27;;;;;;;;;;4915335;29;20462;-94
2021/12/16 03:12:09;;;;;;;24.63;18.55;;;;;;;;;;4923431;29;20481;-94
2021/12/16 03:14:41;;;;;;;24.02;18.00;;;;;;;;;;4926763;29;20487;-94
2021/12/16 03:17:19;;;;;;;23.55;17.75;;;;;;;;;;4927580;29;20597;-94
2021/12/16 03:19:59;;;;;;;22.13;16.70;;;;;;;;;;4916962;29;20459;-94
2021/12/16 03:22:46;;;;;;;20.90;15.75;;;;;;;;;;4922888;29;20426;-94
2021/12/16 03:25:24;;;;;;;21.65;15.73;;;;;;;;;;4928045;29;20476;-94
2021/12/16 03:30:59;;;;;;;20.95;15.73;;;;;;;;;;4885624;29;20965;-95
2021/12/16 03:33:54;;;;;;;20.65;15.88;;;;;;;;;;4919546;29;20475;-94
2021/12/16 03:39:13;;;;;;;21.08;16.45;;;;;;;;;;4925243;29;20438;-94
2021/12/16 03:41:44;;;;;;;20.67;15.90;;;;;;;;;;4922385;29;20466;-94
2021/12/16 03:44:27;;;;;;;19.92;15.13;;;;;;;;;;4925780;29;20898;-95
2021/12/16 03:46:56;;;;;;;18.42;14.23;;;;;;;;;;4923209;29;20430;-94
2021/12/16 03:49:26;;;;;;;20.67;15.38;;;;;;;;;;4922342;29;20434;-95
2021/12/16 03:52:01;;;;;;;18.95;14.95;;;;;;;;;;4920537;29;20423;-94
2021/12/16 03:54:32;;;;;;;18.27;14.90;;;;;;;;;;4922715;29;20424;-95
2021/12/16 03:57:04;;;;;;;18.95;15.30;;;;;;;;;;4928992;29;20413;-94
2021/12/16 03:59:39;;;;;;;19.13;14.40;;;;;;;;;;4933811;29;20414;-95
2021/12/16 04:02:16;;;;;;;19.05;14.55;;;;;;;;;;4932928;29;20965;-95
2021/12/16 04:04:44;;;;;;;18.42;14.80;;;;;;;;;;4922189;29;20910;-93
2021/12/16 04:07:13;;;;;;;18.33;14.68;;;;;;;;;;4921954;29;20438;-94
2021/12/16 04:09:41;;;;;;;18.50;14.50;;;;;;;;;;4922102;29;20427;-95
2021/12/16 04:12:13;;;;;;;18.73;14.43;;;;;;;;;;4925216;29;20476;-94
2021/12/16 04:14:42;;;;;;;19.55;14.68;;;;;;;;;;4922252;29;20518;-94
2021/12/16 04:17:13;;;;;;;21.23;14.97;;;;;;;;;;4920659;29;20431;-95
2021/12/16 04:19:40;;;;;;;17.27;13.57;;;;;;;;;;4922159;29;20423;-95
2021/12/16 04:22:11;;;;;;;21.42;15.35;;;;;;;;;;4924818;29;20417;-94
2021/12/16 04:24:39;;;;;;;35.50;21.60;;;;;;;;;;4932410;29;20421;-94
2021/12/16 04:27:12;;;;;;;37.40;22.88;;;;;;;;;;4921102;29;20432;-94
2021/12/16 04:29:41;;;;;;;36.13;22.35;;;;;;;;;;4922114;29;20818;-93
2021/12/16 04:32:10;;;;;;;35.20;21.88;;;;;;;;;;4925308;29;20418;-94
2021/12/16 04:34:37;;;;;;;34.38;22.20;;;;;;;;;;4920659;29;20423;-95
2021/12/16 04:37:07;;;;;;;32.15;21.73;;;;;;;;;;4925048;29;20501;-95
2021/12/16 04:39:36;;;;;;;32.00;21.90;;;;;;;;;;4924737;29;20933;-94
2021/12/16 04:42:05;;;;;;;30.60;20.67;;;;;;;;;;4914279;29;20784;-94
2021/12/16 04:44:36;;;;;;;30.27;20.73;;;;;;;;;;4925177;29;20433;-94
2021/12/16 04:47:08;;;;;;;28.85;20.25;;;;;;;;;;4921830;29;20502;-94
2021/12/16 04:49:36;;;;;;;25.10;18.40;;;;;;;;;;4926153;29;20502;-94
2021/12/16 04:52:13;;;;;;;25.80;18.17;;;;;;;;;;4926844;29;20498;-94
2021/12/16 04:54:42;;;;;;;25.75;18.55;;;;;;;;;;4935408;29;21079;-94
2021/12/16 04:57:09;;;;;;;26.60;18.50;;;;;;;;;;4929636;29;20503;-94
2021/12/16 04:59:41;;;;;;;26.63;18.10;;;;;;;;;;4941349;28;20422;-94
2021/12/16 05:02:15;;;;;;;24.33;18.02;;;;;;;;;;4935806;28;20516;-94
2021/12/16 05:04:46;;;;;;;27.52;17.95;;;;;;;;;;4932202;29;20457;-94
2021/12/16 05:07:14;;;;;;;24.33;18.20;;;;;;;;;;4931486;29;20512;-94
2021/12/16 05:10:03;;;;;;;24.70;17.73;;;;;;;;;;4931280;29;20426;-95
2021/12/16 05:12:34;;;;;;;24.88;18.02;;;;;;;;;;4920564;29;20457;-93
2021/12/16 05:15:03;;;;;;;24.98;18.50;;;;;;;;;;4927850;29;20460;-94
2021/12/16 05:17:36;;;;;;;27.02;20.50;;;;;;;;;;4928388;29;20414;-94
2021/12/16 05:20:07;;;;;;;32.80;21.70;;;;;;;;;;4928065;29;20427;-94
2021/12/16 05:25:28;;;;;;;30.38;21.75;;;;;;;;;;4926190;29;20401;-94
2021/12/16 05:27:55;;;;;;;34.30;22.90;;;;;;;;;;4931490;29;20502;-93
2021/12/16 05:30:24;;;;;;;34.58;22.75;;;;;;;;;;4925978;29;20427;-94
2021/12/16 05:32:51;;;;;;;33.15;22.90;;;;;;;;;;4920280;29;20422;-94
2021/12/16 05:35:21;;;;;;;32.33;22.02;;;;;;;;;;4918274;29;20421;-94
2021/12/16 05:37:48;;;;;;;31.42;21.67;;;;;;;;;;4931265;29;20422;-95
2021/12/16 05:40:19;;;;;;;30.35;20.67;;;;;;;;;;4928502;29;20426;-94
2021/12/16 05:42:47;;;;;;;29.60;20.75;;;;;;;;;;4922395;29;20434;-95
2021/12/16 05:45:14;;;;;;;29.40;19.90;;;;;;;;;;4920106;29;20431;-94
2021/12/16 05:47:45;;;;;;;25.65;19.15;;;;;;;;;;4929121;29;20428;-94
2021/12/16 05:50:16;;;;;;;24.15;18.75;;;;;;;;;;4929877;29;20424;-95
2021/12/16 05:53:23;;;;;;;25.20;19.13;;;;;;;;;;4927011;29;20512;-94
2021/12/16 06:09:48;;;;;;;23.40;17.40;;;;;;;;;;4856525;29;20463;-96
2021/12/16 06:13:12;;;;;;;24.80;18.30;;;;;;;;;;4794612;29;20461;-95
2021/12/16 06:32:00;;;;;;;31.88;21.63;;;;;;;;;;4887418;29;20472;-94
2021/12/16 06:34:27;;;;;;;29.45;19.90;;;;;;;;;;4888990;29;20452;-95
2021/12/16 06:36:59;;;;;;;31.20;22.02;;;;;;;;;;4895286;29;20526;-96
2021/12/16 06:39:28;;;;;;;40.55;25.38;;;;;;;;;;4898419;29;20492;-96
2021/12/16 06:41:59;;;;;;;191.75;91.55;;;;;;;;;;4911108;29;20417;-96
2021/12/16 06:50:41;;;;;;;42.75;28.42;;;;;;;;;;4892764;29;20459;-96
2021/12/16 06:59:56;;;;;;;29.27;20.00;;;;;;;;;;4960838;29;20407;-96
2021/12/16 07:11:15;;;;;;;22.48;18.35;;;;;;;;;;4973901;29;20897;-96
2021/12/16 07:13:59;;;;;;;25.98;18.50;;;;;;;;;;4958872;29;20440;-96
2021/12/16 07:16:28;;;;;;;24.67;18.05;;;;;;;;;;4955966;29;20496;-96
2021/12/16 07:18:57;;;;;;;23.80;17.95;;;;;;;;;;4958487;28;20414;-96
2021/12/16 07:51:03;;;;;;;25.10;17.90;;;;;;;;;;5107724;23;20435;-96
2021/12/16 07:53:39;;;;;;;25.27;17.40;;;;;;;;;;4976026;28;20414;-96
2021/12/16 07:56:35;;;;;;;23.75;16.70;;;;;;;;;;4963419;28;20459;-96
2021/12/16 07:59:42;;;;;;;26.15;17.70;;;;;;;;;;4959911;29;21036;-96
2021/12/16 08:02:12;;;;;;;23.30;17.25;;;;;;;;;;4952995;29;20406;-96
2021/12/16 08:04:51;;;;;;;23.10;17.85;;;;;;;;;;4964219;29;20455;-96
2021/12/16 08:10:07;;;;;;;25.10;19.58;;;;;;;;;;4966338;28;20399;-96
2021/12/16 08:12:49;;;;;;;24.20;18.20;;;;;;;;;;4959363;28;20406;-96
2021/12/16 08:15:36;;;;;;;25.75;19.38;;;;;;;;;;4975362;28;20412;-96
2021/12/16 08:28:28;;;;;;;29.50;21.15;;;;;;;;;;4936521;28;20419;-96
2021/12/16 08:31:07;;;;;;;30.92;22.42;;;;;;;;;;4943938;29;20417;-96
2021/12/16 08:33:37;;;;;;;28.60;21.58;;;;;;;;;;4939291;29;20495;-96
2021/12/16 08:36:07;;;;;;;36.90;21.23;;;;;;;;;;4935935;29;20421;-96
2021/12/16 08:38:44;;;;;;;27.42;21.02;;;;;;;;;;4940162;29;20465;-96
2021/12/16 08:41:29;;;;;;;27.88;21.05;;;;;;;;;;4931149;29;20412;-96
2021/12/16 08:43:56;;;;;;;33.70;23.85;;;;;;;;;;4949638;29;20500;-96
2021/12/16 08:46:36;;;;;;;39.60;25.60;;;;;;;;;;4949837;29;20406;-96
2021/12/16 08:49:13;;;;;;;34.85;23.35;;;;;;;;;;4947736;29;20414;-96
2021/12/16 08:52:19;;;;;;;28.17;21.05;;;;;;;;;;4949332;29;20430;-96
2021/12/16 09:26:04;;;;;;;28.67;20.85;;;;;;;;;;4913204;29;20439;-96
2021/12/16 09:34:26;;;;;;;22.03;18.10;;;;;;;;;;4798204;29;20413;-94
2021/12/16 09:36:53;;;;;;;24.58;18.45;;;;;;;;;;4847583;29;20441;-95
2021/12/16 09:42:38;;;;;;;26.25;17.65;;;;;;;;;;4922883;29;20434;-95
2021/12/16 09:48:46;;;;;;;21.65;17.17;;;;;;;;;;4902212;29;20840;-96
2021/12/16 09:51:28;;;;;;;20.83;16.65;;;;;;;;;;4926440;29;20433;-95
2021/12/16 09:57:06;;;;;;;23.60;18.48;;;;;;;;;;4857498;29;20791;-95
2021/12/16 10:02:41;;;;;;;;;;;;;;;;;;;;;
2021/12/16 10:05:40;;;;;;;21.52;16.77;;;;;;;;;;4930169;29;20406;-95
2021/12/16 10:08:11;;;;;;;18.75;15.15;;;;;;;;;;4928638;29;20413;-95
2021/12/16 10:10:47;;;;;;;21.30;16.05;;;;;;;;;;4926490;29;20422;-95
2021/12/16 10:13:31;;;;;;;23.15;16.17;;;;;;;;;;4923029;29;20419;-95
2021/12/16 10:19:35;;;;;;;18.73;15.20;;;;;;;;;;4931326;29;20481;-95
2021/12/16 10:22:29;;;;;;;19.95;15.50;;;;;;;;;;4924726;29;20512;-94
2021/12/16 10:25:31;;;;;;;23.05;16.33;;;;;;;;;;4930143;29;20422;-94
2021/12/16 10:28:45;;;;;;;21.27;15.95;;;;;;;;;;4930508;29;20421;-95
2021/12/16 10:37:11;;;;;;;20.88;15.25;;;;;;;;;;4931489;29;20402;-95
2021/12/16 10:39:39;;;;;;;18.97;14.73;;;;;;;;;;4931844;29;20444;-95
2021/12/16 10:42:19;;;;;;;20.73;15.67;;;;;;;;;;4916170;29;20788;-94
2021/12/16 10:44:51;;;;;;;19.70;15.02;;;;;;;;;;4922052;29;20487;-95
2021/12/16 10:47:29;;;;;;;19.13;14.98;;;;;;;;;;4916212;29;20424;-95
2021/12/16 10:50:06;;;;;;;;;;;;;;;;;;;;;
2021/12/16 10:53:01;;;;;;;18.30;14.95;;;;;;;;;;4925282;29;20751;-94
2021/12/16 10:55:47;;;;;;;19.55;15.32;;;;;;;;;;4915172;29;20402;-96
2021/12/16 10:58:42;;;;;;;20.58;15.68;;;;;;;;;;4914373;29;20456;-94
2021/12/16 11:05:11;;;;;;;19.70;15.45;;;;;;;;;;4890409;29;20388;-96
2021/12/16 11:07:51;;;;;;;19.42;15.18;;;;;;;;;;4901482;29;20439;-96
2021/12/16 11:10:25;;;;;;;19.02;15.20;;;;;;;;;;4958079;28;20450;-96
2021/12/16 11:12:59;;;;;;;19.33;14.85;;;;;;;;;;4955035;28;20706;-96
2021/12/16 11:15:34;;;;;;;18.63;15.02;;;;;;;;;;4959106;28;20401;-96
2021/12/16 11:18:42;;;;;;;22.02;16.77;;;;;;;;;;4946529;28;20398;-96
2021/12/16 11:21:11;;;;;;;19.73;14.85;;;;;;;;;;4930591;29;20446;-95
2021/12/16 11:23:41;;;;;;;17.98;14.45;;;;;;;;;;4931090;29;20417;-95
2021/12/16 11:26:17;;;;;;;19.38;15.38;;;;;;;;;;4929379;29;20573;-96
2021/12/16 11:28:46;;;;;;;18.17;13.93;;;;;;;;;;4917125;29;20436;-95
2021/12/16 11:31:29;;;;;;;;;;;;;;;;;;;;;
2021/12/16 11:33:58;;;;;;;17.50;14.75;;;;;;;;;;4932897;29;20489;-96
2021/12/16 11:36:29;;;;;;;19.20;14.13;;;;;;;;;;4935030;29;20425;-96
2021/12/16 11:39:00;;;;;;;17.67;14.50;;;;;;;;;;4935379;29;20418;-95
2021/12/16 11:41:35;;;;;;;16.60;13.23;;;;;;;;;;4932692;29;20889;-95
2021/12/16 11:44:16;;;;;;;21.13;15.67;;;;;;;;;;4932076;29;21019;-96
2021/12/16 11:46:49;;;;;;;28.95;23.98;;;;;;;;;;4931767;29;20457;-96
2021/12/16 11:49:24;;;;;;;15.35;12.10;;;;;;;;;;4934479;29;20435;-95
2021/12/16 11:52:00;;;;;;;14.32;10.82;;;;;;;;;;4933573;29;20898;-95
2021/12/16 11:54:34;;;;;;;13.95;11.15;;;;;;;;;;4935822;29;20563;-96
2021/12/16 11:57:10;;;;;;;14.85;11.35;;;;;;;;;;4936854;29;20519;-96
2021/12/16 11:59:43;;;;;;;14.95;12.45;;;;;;;;;;4933669;29;20488;-96
2021/12/16 12:02:31;;;;;;;15.98;12.40;;;;;;;;;;4928463;29;20839;-96
2021/12/16 12:05:23;;;;;;;14.15;10.65;;;;;;;;;;4930572;29;20492;-92
2021/12/16 12:07:57;;;;;;;12.48;10.23;;;;;;;;;;4939303;29;20484;-95
2021/12/16 12:10:59;;;;;;;14.95;12.27;;;;;;;;;;4926332;29;20503;-95
2021/12/16 12:16:37;;;;;;;18.25;14.63;;;;;;;;;;4917842;29;20950;-96
2021/12/16 12:25:46;;;;;;;17.50;12.83;;;;;;;;;;4940580;29;20977;-94
2021/12/16 12:28:20;;;;;;;16.92;12.63;;;;;;;;;;4943616;29;20456;-96
2021/12/16 12:34:55;;;;;;;27.23;20.73;;;;;;;;;;4889494;29;20481;-96
2021/12/16 12:37:25;;;;;;;16.10;13.30;;;;;;;;;;4939032;29;20490;-96
2021/12/16 12:40:06;;;;;;;19.98;17.95;;;;;;;;;;4925820;29;20451;-96
2021/12/16 12:45:35;;;;;;;16.40;13.07;;;;;;;;;;4942634;29;20477;-96
2021/12/16 12:48:40;;;;;;;17.05;13.43;;;;;;;;;;4940299;29;20467;-93
2021/12/16 12:51:11;;;;;;;15.35;11.40;;;;;;;;;;4905438;29;20489;-90
2021/12/16 12:53:47;;;;;;;14.00;11.02;;;;;;;;;;4927842;29;20421;-94
2021/12/16 12:56:21;;;;;;;13.37;10.60;;;;;;;;;;4925149;29;20827;-92
2021/12/16 12:58:54;;;;;;;12.90;10.65;;;;;;;;;;4926466;29;20974;-94
2021/12/16 13:01:35;;;;;;;15.15;11.50;;;;;;;;;;4930188;29;20525;-94
2021/12/16 13:04:06;;;;;;;15.73;11.97;;;;;;;;;;4929193;29;21393;-91
2021/12/16 13:07:01;;;;;;;16.17;12.40;;;;;;;;;;4930180;29;20522;-94
2021/12/16 13:09:33;;;;;;;16.77;12.45;;;;;;;;;;4926702;29;20969;-92
2021/12/16 13:12:01;;;;;;;16.23;12.43;;;;;;;;;;4929001;29;20981;-91
2021/12/16 13:14:46;;;;;;;16.88;13.35;;;;;;;;;;4926120;29;20422;-94
2021/12/16 13:26:19;;;;;;;16.55;13.38;;;;;;;;;;4927274;29;20771;-92
2021/12/16 13:29:02;;;;;;;18.67;13.13;;;;;;;;;;4925444;29;20435;-92
2021/12/16 13:31:38;;;;;;;15.18;11.95;;;;;;;;;;4927796;29;20454;-95
2021/12/16 13:34:05;;;;;;;17.38;12.98;;;;;;;;;;4929125;29;20429;-92
2021/12/16 13:36:43;;;;;;;16.80;13.50;;;;;;;;;;4930732;29;20429;-92
2021/12/16 13:39:15;;;;;;;17.13;13.85;;;;;;;;;;4929981;29;20504;-91
2021/12/16 13:42:05;;;;;;;17.08;13.70;;;;;;;;;;4927314;29;20414;-93
2021/12/16 13:44:49;;;;;;;17.90;14.38;;;;;;;;;;4926775;29;20417;-93
2021/12/16 13:47:29;;;;;;;15.45;13.25;;;;;;;;;;4929934;29;20421;-93
2021/12/16 14:02:58;;;;;;;14.55;12.52;;;;;;;;;;4913982;29;20754;-93
2021/12/16 14:05:42;;;;;;;14.57;12.95;;;;;;;;;;4929906;29;20970;-94
2021/12/16 14:08:13;;;;;;;17.08;13.18;;;;;;;;;;4933597;29;20433;-93
2021/12/16 14:10:53;;;;;;;14.85;12.35;;;;;;;;;;4927363;29;20449;-94
2021/12/16 14:16:40;;;;;;;13.80;12.18;;;;;;;;;;4934985;29;20397;-93
2021/12/16 14:39:38;;;;;;;18.40;12.03;;;;;;;;;;4934207;29;20561;-94
2021/12/16 14:42:14;;;;;;;16.70;12.70;;;;;;;;;;4933219;29;20429;-94
2021/12/16 14:50:41;;;;;;;17.58;12.32;;;;;;;;;;4929056;29;20430;-93
2021/12/16 14:53:19;;;;;;;18.42;12.80;;;;;;;;;;4935596;29;20433;-93
2021/12/16 14:55:54;;;;;;;16.83;12.70;;;;;;;;;;4934463;29;20428;-93
2021/12/16 14:58:25;;;;;;;15.85;12.20;;;;;;;;;;4933495;29;20420;-93
2021/12/16 15:01:02;;;;;;;17.05;12.30;;;;;;;;;;4932144;29;20910;-94
2021/12/16 15:03:37;;;;;;;15.52;11.93;;;;;;;;;;4931404;29;20421;-94
2021/12/16 15:06:07;;;;;;;17.55;12.90;;;;;;;;;;4931260;29;20481;-92
2021/12/16 15:08:41;;;;;;;18.35;13.45;;;;;;;;;;4933083;29;20424;-94
2021/12/16 15:11:13;;;;;;;18.83;13.60;;;;;;;;;;4927911;29;20453;-94
2021/12/16 15:13:45;;;;;;;24.13;19.25;;;;;;;;;;4930855;29;20417;-93
2021/12/16 15:16:34;;;;;;;22.15;18.20;;;;;;;;;;4929365;29;20432;-93
2021/12/16 15:39:15;;;;;;;24.58;16.42;;;;;;;;;;4927820;29;20547;-94
2021/12/16 15:44:26;;;;;;;23.73;15.93;;;;;;;;;;4928870;29;20477;-94
2021/12/16 15:46:54;;;;;;;22.48;15.68;;;;;;;;;;4929838;29;20427;-94
2021/12/16 15:49:23;;;;;;;25.27;16.17;;;;;;;;;;4931499;29;20417;-94
2021/12/16 15:51:53;;;;;;;23.50;16.55;;;;;;;;;;4931192;29;20981;-94
2021/12/16 15:54:22;;;;;;;24.85;16.30;;;;;;;;;;4929753;29;20429;-94
2021/12/16 15:56:50;;;;;;;23.15;16.38;;;;;;;;;;4930970;29;20421;-94
2021/12/16 15:59:19;;;;;;;24.05;16.60;;;;;;;;;;4931013;29;20771;-94
2021/12/16 16:01:48;;;;;;;25.42;16.58;;;;;;;;;;4931178;29;20425;-94
2021/12/16 16:04:18;;;;;;;21.77;16.38;;;;;;;;;;4931065;29;20440;-93
2021/12/16 16:06:48;;;;;;;25.88;15.82;;;;;;;;;;4928291;29;20425;-95
2021/12/16 16:09:18;;;;;;;28.30;17.23;;;;;;;;;;4930201;29;21134;-93
2021/12/16 16:12:05;;;;;;;23.58;15.77;;;;;;;;;;4926745;29;20466;-94
2021/12/16 16:14:33;;;;;;;26.35;16.77;;;;;;;;;;4929001;29;20418;-94
2021/12/16 16:17:05;;;;;;;26.83;16.77;;;;;;;;;;4926630;29;20473;-93
2021/12/16 16:19:35;;;;;;;26.15;15.63;;;;;;;;;;4930144;29;20812;-93
2021/12/16 16:22:04;;;;;;;22.33;14.77;;;;;;;;;;4929446;29;20463;-93
2021/12/16 16:24:35;;;;;;;23.90;16.23;;;;;;;;;;4930267;29;21424;-93
2021/12/16 16:27:07;;;;;;;23.80;15.50;;;;;;;;;;4929739;29;20432;-94
2021/12/16 16:29:36;;;;;;;23.75;15.70;;;;;;;;;;4930291;29;20414;-94
2021/12/16 16:32:04;;;;;;;24.80;17.27;;;;;;;;;;4929340;29;20961;-94
2021/12/16 16:34:33;;;;;;;25.52;16.63;;;;;;;;;;4930069;29;20437;-93
2021/12/16 16:37:06;;;;;;;23.50;17.03;;;;;;;;;;4929754;29;20417;-94
2021/12/16 16:39:37;;;;;;;24.63;17.52;;;;;;;;;;4930236;29;20426;-94
2021/12/16 16:42:07;;;;;;;25.97;18.53;;;;;;;;;;4930346;29;20428;-94
2021/12/16 16:44:35;;;;;;;29.88;18.15;;;;;;;;;;4930367;29;20422;-94
2021/12/16 16:47:09;;;;;;;27.00;18.70;;;;;;;;;;4930176;29;20757;-91
2021/12/16 16:49:45;;;;;;;27.13;19.27;;;;;;;;;;4930482;29;20457;-95
2021/12/16 16:52:16;;;;;;;32.53;19.33;;;;;;;;;;4930316;29;20764;-95
2021/12/16 16:54:48;;;;;;;32.03;21.83;;;;;;;;;;4929386;29;20471;-94
2021/12/16 16:57:17;;;;;;;32.42;24.17;;;;;;;;;;4929889;29;20422;-94
2021/12/16 16:59:46;;;;;;;37.03;24.77;;;;;;;;;;4928614;29;20413;-94
2021/12/16 17:02:24;;;;;;;38.05;26.15;;;;;;;;;;4929099;29;20428;-94
2021/12/16 17:04:57;;;;;;;36.05;24.00;;;;;;;;;;4928200;29;20469;-94
2021/12/16 17:07:26;;;;;;;41.70;25.90;;;;;;;;;;4929074;29;20410;-94
2021/12/16 17:09:54;;;;;;;36.85;25.40;;;;;;;;;;4929036;29;20493;-94
2021/12/16 17:12:21;;;;;;;39.25;25.85;;;;;;;;;;4929771;29;20429;-94
2021/12/16 17:14:54;;;;;;;37.38;25.17;;;;;;;;;;4927463;29;20422;-94
2021/12/16 17:17:26;;;;;;;32.25;24.30;;;;;;;;;;4930230;29;20418;-94
2021/12/16 17:19:59;;;;;;;36.05;24.55;;;;;;;;;;4929016;29;20430;-94
2021/12/16 17:22:31;;;;;;;43.47;30.25;;;;;;;;;;4925191;29;20987;-94
2021/12/16 17:25:00;;;;;;;41.63;29.50;;;;;;;;;;4929616;29;20461;-94
2021/12/16 17:27:36;;;;;;;38.72;27.42;;;;;;;;;;4929010;29;20424;-94
2021/12/16 17:30:10;;;;;;;39.45;27.35;;;;;;;;;;4931642;29;20994;-93
2021/12/16 17:32:42;;;;;;;42.15;29.40;;;;;;;;;;4930522;29;20416;-93
2021/12/16 17:35:12;;;;;;;43.78;29.88;;;;;;;;;;4929310;29;20418;-94
2021/12/16 17:37:45;;;;;;;50.17;30.53;;;;;;;;;;4930013;29;20484;-96
2021/12/16 18:04:37;;;;;;;53.53;36.17;;;;;;;;;;4941209;29;20455;-96
2021/12/16 18:07:06;;;;;;;59.72;44.53;;;;;;;;;;4937686;29;20521;-96
2021/12/16 18:09:42;;;;;;;60.22;43.28;;;;;;;;;;4916915;29;20399;-96
2021/12/16 18:12:13;;;;;;;59.72;40.72;;;;;;;;;;4932459;29;20505;-96
2021/12/16 18:14:46;;;;;;;60.13;39.00;;;;;;;;;;4934060;29;20428;-96
2021/12/16 18:17:18;;;;;;;58.70;40.78;;;;;;;;;;4932181;29;20426;-96
2021/12/16 18:19:52;;;;;;;58.78;40.13;;;;;;;;;;4933912;29;20426;-95
2021/12/16 18:22:24;;;;;;;64.22;43.72;;;;;;;;;;4929892;29;20417;-96
2021/12/16 18:24:54;;;;;;;65.78;44.88;;;;;;;;;;4931202;29;20417;-96
2021/12/16 18:27:27;;;;;;;62.95;42.90;;;;;;;;;;4931065;29;20441;-96
2021/12/16 18:29:59;;;;;;;64.57;43.70;;;;;;;;;;4934965;29;20425;-95
2021/12/16 18:32:33;;;;;;;58.58;43.08;;;;;;;;;;4937550;29;20760;-96
2021/12/16 18:35:03;;;;;;;63.83;42.47;;;;;;;;;;4936078;29;20417;-96
2021/12/16 18:37:32;;;;;;;64.18;44.53;;;;;;;;;;4949763;28;20433;-96
2021/12/16 18:40:01;;;;;;;64.50;43.80;;;;;;;;;;4956663;28;20418;-96
2021/12/16 18:42:30;;;;;;;65.30;43.13;;;;;;;;;;4956763;28;20440;-96
2021/12/16 18:45:11;;;;;;;58.78;41.88;;;;;;;;;;4954682;28;20425;-96
2021/12/16 18:47:58;;;;;;;68.93;47.78;;;;;;;;;;4922766;29;20419;-96
2021/12/16 18:50:57;;;;;;;100.82;59.03;;;;;;;;;;4936872;29;20473;-96
2021/12/16 18:56:45;;;;;;;77.00;50.28;;;;;;;;;;4937029;29;20401;-95
2021/12/16 18:59:37;;;;;;;79.50;52.13;;;;;;;;;;4947180;29;20409;-96
2021/12/16 19:19:20;;;;;;;62.55;43.03;;;;;;;;;;5504025;23;20423;-95
2021/12/16 19:21:47;;;;;;;59.47;40.53;;;;;;;;;;4930899;29;20422;-93
2021/12/16 19:24:15;;;;;;;58.97;41.85;;;;;;;;;;4933812;29;20412;-94
2021/12/16 19:26:43;;;;;;;56.95;39.67;;;;;;;;;;4928467;28;20424;-94
2021/12/16 19:29:11;;;;;;;55.72;40.60;;;;;;;;;;4923887;29;20925;-94
2021/12/16 19:31:39;;;;;;;53.78;39.47;;;;;;;;;;4925674;29;20498;-94
2021/12/16 19:34:09;;;;;;;55.20;37.70;;;;;;;;;;4922701;29;20509;-94
2021/12/16 19:36:39;;;;;;;51.72;37.92;;;;;;;;;;4931461;29;20945;-94
2021/12/16 19:39:08;;;;;;;53.45;36.95;;;;;;;;;;4932277;28;20793;-96
2021/12/16 19:41:36;;;;;;;50.72;37.08;;;;;;;;;;4925479;29;20423;-96
2021/12/16 19:44:08;;;;;;;54.97;36.57;;;;;;;;;;4929680;29;20426;-95
2021/12/16 19:46:35;;;;;;;57.33;39.70;;;;;;;;;;4924207;29;20418;-95
2021/12/16 19:49:04;;;;;;;54.42;39.72;;;;;;;;;;4926671;28;20430;-95
2021/12/16 19:51:32;;;;;;;57.90;42.50;;;;;;;;;;4928649;29;20877;-96
2021/12/16 19:54:01;;;;;;;60.83;43.45;;;;;;;;;;4929273;28;20425;-95
2021/12/16 19:56:28;;;;;;;62.30;45.03;;;;;;;;;;4928562;29;20428;-94
2021/12/16 19:58:56;;;;;;;61.47;43.13;;;;;;;;;;4928861;28;20748;-95
2021/12/16 20:01:25;;;;;;;58.15;41.28;;;;;;;;;;4929720;29;20429;-95
2021/12/16 20:03:56;;;;;;;53.27;40.10;;;;;;;;;;4927568;29;20428;-94
2021/12/16 20:06:27;;;;;;;59.58;40.53;;;;;;;;;;4930002;29;20430;-95
2021/12/16 20:08:56;;;;;;;54.60;40.73;;;;;;;;;;4932734;28;20921;-95
2021/12/16 20:11:28;;;;;;;54.67;40.85;;;;;;;;;;4932546;29;20433;-96
2021/12/16 20:13:56;;;;;;;55.35;38.35;;;;;;;;;;4938969;29;20410;-95
2021/12/16 20:16:27;;;;;;;52.67;38.57;;;;;;;;;;4931746;28;20511;-92
2021/12/16 20:18:57;;;;;;;54.78;37.80;;;;;;;;;;4928896;29;20433;-95
2021/12/16 20:21:28;;;;;;;53.80;38.17;;;;;;;;;;4931956;29;20494;-95
2021/12/16 20:24:00;;;;;;;52.95;37.28;;;;;;;;;;4923509;29;20431;-96
2021/12/16 20:26:32;;;;;;;49.97;36.77;;;;;;;;;;4917416;29;20466;-96
2021/12/16 20:29:07;;;;;;;51.65;37.28;;;;;;;;;;4927642;29;20413;-94
2021/12/16 20:31:38;;;;;;;48.42;35.85;;;;;;;;;;4898319;29;20421;-96
2021/12/16 20:34:08;;;;;;;49.88;36.88;;;;;;;;;;4928454;29;20440;-95
2021/12/16 20:36:39;;;;;;;51.53;37.45;;;;;;;;;;4930908;28;20562;-95
2021/12/16 20:39:10;;;;;;;54.88;38.55;;;;;;;;;;4933129;29;20420;-96
2021/12/16 20:41:42;;;;;;;46.35;33.25;;;;;;;;;;4927976;29;20421;-88
2021/12/16 20:44:18;;;;;;;47.65;34.92;;;;;;;;;;4948372;29;20409;-96
2021/12/16 20:46:48;;;;;;;45.83;33.97;;;;;;;;;;4931669;28;20441;-96
2021/12/16 20:49:21;;;;;;;48.38;35.15;;;;;;;;;;4920072;29;20413;-96
2021/12/16 20:51:50;;;;;;;46.33;33.30;;;;;;;;;;4936200;28;20432;-96
2021/12/16 20:54:20;;;;;;;44.10;33.88;;;;;;;;;;4934086;29;20424;-96
2021/12/16 20:56:50;;;;;;;45.92;33.55;;;;;;;;;;4933277;28;20430;-95
2021/12/16 20:59:20;;;;;;;46.05;33.20;;;;;;;;;;4921891;29;20495;-96
2021/12/16 21:01:51;;;;;;;45.50;34.20;;;;;;;;;;4932051;29;20537;-95
2021/12/16 21:04:19;;;;;;;43.33;32.58;;;;;;;;;;4933493;29;20437;-96
2021/12/16 21:06:51;;;;;;;46.67;34.03;;;;;;;;;;4928040;29;20488;-95
2021/12/16 21:09:25;;;;;;;44.00;32.72;;;;;;;;;;4931016;29;20414;-96
2021/12/16 21:11:54;;;;;;;45.38;32.47;;;;;;;;;;4928618;28;20429;-94
2021/12/16 21:14:22;;;;;;;42.95;32.35;;;;;;;;;;4932523;29;20410;-95
2021/12/16 21:16:52;;;;;;;41.25;30.63;;;;;;;;;;4932366;29;20445;-95
2021/12/16 21:19:22;;;;;;;41.67;30.17;;;;;;;;;;4934687;28;20487;-95
2021/12/16 21:21:52;;;;;;;38.93;29.83;;;;;;;;;;4933484;29;20499;-96
2021/12/16 21:24:20;;;;;;;42.15;30.58;;;;;;;;;;4933038;28;20454;-96
2021/12/16 21:26:48;;;;;;;44.88;32.00;;;;;;;;;;4929710;29;20454;-96